Terminal Aerodrome Forecast
Issued by NWS

Home | Current Version | Previous Version | Text Only | Print | Product List | Glossary On
Versions: 1 2 3 4 5 6 7 8 9 10 11 12 13 14 15 16 17 18 19 20 21 22 23
000
FTUS43 KFGF 221739
TAFTVF
TAF
KTVF 221739Z 2218/2318 01011KT P6SM OVC010
      TEMPO 2219/2220 4SM -RASN OVC003
     FM222100 36011KT P6SM OVC020
     FM222200 36012KT P6SM OVC035
     FM230000 35010KT P6SM OVC030
     FM230200 36009KT P6SM OVC035=

USA.gov is the U.S. government's official web portal to all federal, state and local government web resources and services.